createdAt,value
2018-09-14T00:00:06.934Z,24.80
2018-09-14T00:02:47.616Z,24.03
2018-09-14T00:05:28.326Z,29.53
2018-09-14T00:08:08.938Z,25.67
2018-09-14T00:10:49.716Z,27.90
2018-09-14T00:13:30.395Z,20.33
2018-09-14T00:16:11.028Z,21.70
2018-09-14T00:18:51.626Z,20.47
2018-09-14T00:21:32.323Z,21.33
2018-09-14T00:24:12.829Z,24.13
2018-09-14T00:26:53.478Z,30.30
2018-09-14T00:29:34.118Z,25.40
2018-09-14T00:32:14.705Z,27.90
2018-09-14T00:34:55.305Z,27.87
2018-09-14T00:37:35.942Z,25.30
2018-09-14T00:40:16.726Z,29.47
2018-09-14T00:42:57.417Z,24.53
2018-09-14T00:45:38.228Z,21.33
2018-09-14T00:48:18.890Z,24.63
2018-09-14T00:50:59.493Z,29.27
2018-09-14T00:53:40.237Z,22.73
2018-09-14T00:56:20.867Z,21.80
2018-09-14T00:59:02.017Z,18.30
2018-09-14T01:01:43.225Z,22.30
2018-09-14T01:04:24.143Z,31.37
2018-09-14T01:07:04.774Z,21.77
2018-09-14T01:09:45.527Z,24.20
2018-09-14T01:12:26.332Z,24.40
2018-09-14T01:15:06.890Z,18.53
2018-09-14T01:17:47.722Z,27.17
2018-09-14T01:20:28.521Z,28.83
2018-09-14T01:23:09.046Z,27.20
2018-09-14T01:25:49.639Z,18.50
2018-09-14T01:28:31.153Z,21.37
2018-09-14T01:31:12.646Z,23.50
2018-09-14T01:33:53.553Z,23.10
2018-09-14T01:36:34.102Z,23.83
2018-09-14T01:39:14.787Z,33.57
2018-09-14T01:41:55.320Z,25.13
2018-09-14T01:44:35.837Z,16.27
2018-09-14T01:47:16.454Z,19.93
2018-09-14T01:49:56.985Z,24.77
2018-09-14T01:52:37.946Z,16.33
2018-09-14T01:55:19.384Z,19.30
2018-09-14T01:58:00.146Z,23.27
2018-09-14T02:00:40.925Z,21.43
2018-09-14T02:03:21.913Z,28.07
2018-09-14T02:06:03.087Z,30.90
2018-09-14T02:08:43.987Z,19.20
2018-09-14T02:11:24.621Z,21.97
2018-09-14T02:14:05.233Z,24.13
2018-09-14T02:16:45.981Z,21.07
2018-09-14T02:19:26.969Z,17.13
2018-09-14T02:22:07.609Z,19.90
2018-09-14T02:24:49.003Z,28.87
2018-09-14T02:27:30.289Z,23.23
2018-09-14T02:30:11.244Z,20.57
2018-09-14T02:32:51.909Z,20.23
2018-09-14T02:35:32.712Z,20.10
2018-09-14T02:38:13.453Z,20.60
2018-09-14T02:40:54.206Z,25.17
2018-09-14T02:43:34.725Z,29.83
2018-09-14T02:46:15.252Z,27.73
2018-09-14T02:48:56.164Z,26.73
2018-09-14T02:51:36.869Z,38.33
2018-09-14T02:54:17.805Z,18.10
2018-09-14T02:56:58.465Z,17.03
2018-09-14T02:59:39.144Z,24.43
2018-09-14T03:02:19.679Z,27.50
2018-09-14T03:05:00.266Z,20.67
2018-09-14T03:07:40.882Z,29.20
2018-09-14T03:10:21.622Z,17.97
2018-09-14T03:13:02.239Z,22.63
2018-09-14T03:15:43.094Z,24.23
2018-09-14T03:18:23.774Z,25.00
2018-09-14T03:21:04.611Z,24.53
2018-09-14T03:23:45.394Z,25.13
2018-09-14T03:26:26.887Z,36.57
2018-09-14T03:29:07.383Z,19.30
2018-09-14T03:31:48.071Z,26.10
2018-09-14T03:34:28.614Z,29.53
2018-09-14T03:37:09.259Z,37.70
2018-09-14T03:39:50.084Z,39.53
2018-09-14T03:42:30.783Z,19.83
2018-09-14T03:45:11.601Z,27.13
2018-09-14T03:47:52.505Z,25.60
2018-09-14T03:50:33.052Z,26.40
2018-09-14T03:53:13.755Z,29.73
2018-09-14T03:55:54.421Z,29.70
2018-09-14T03:58:35.128Z,15.23
2018-09-14T04:01:15.855Z,19.17
2018-09-14T04:03:56.345Z,17.70
2018-09-14T04:06:37.114Z,23.37
2018-09-14T04:09:17.957Z,11.37
2018-09-14T04:11:59.197Z,23.57
2018-09-14T04:14:40.338Z,14.73
2018-09-14T04:17:21.043Z,15.97
2018-09-14T04:20:01.815Z,13.40
2018-09-14T04:22:42.428Z,21.13
2018-09-14T04:25:23.259Z,21.23
2018-09-14T04:28:04.672Z,15.53
2018-09-14T04:30:45.412Z,12.73
2018-09-14T04:33:26.118Z,19.80
2018-09-14T04:36:06.840Z,18.77
2018-09-14T04:38:47.790Z,16.97
2018-09-14T04:41:28.331Z,19.90
2018-09-14T04:44:09.139Z,12.50
2018-09-14T04:46:50.154Z,12.10
2018-09-14T04:49:31.050Z,17.73
2018-09-14T04:52:11.893Z,11.10
2018-09-14T04:54:52.686Z,21.33
2018-09-14T04:57:33.668Z,12.93
2018-09-14T05:00:14.332Z,17.57
2018-09-14T05:02:54.965Z,15.73
2018-09-14T05:05:35.754Z,11.97
2018-09-14T05:08:17.154Z,11.43
2018-09-14T05:10:57.832Z,14.47
2018-09-14T05:13:38.597Z,14.47
2018-09-14T05:16:19.467Z,13.30
2018-09-14T05:19:00.258Z,16.43
2018-09-14T05:21:40.780Z,17.73
2018-09-14T05:24:21.570Z,16.87
2018-09-14T05:27:02.084Z,29.50
2018-09-14T05:29:42.864Z,19.37
2018-09-14T05:32:23.885Z,17.30
2018-09-14T05:35:04.818Z,12.53
2018-09-14T05:37:45.613Z,24.27
2018-09-14T05:40:26.305Z,16.57
2018-09-14T05:43:07.252Z,16.83
2018-09-14T05:45:48.224Z,16.47
2018-09-14T05:48:28.838Z,19.00
2018-09-14T05:51:09.570Z,21.40
2018-09-14T05:53:50.327Z,22.70
2018-09-14T05:56:31.026Z,30.37
2018-09-14T05:59:11.789Z,26.53
2018-09-14T06:01:52.678Z,21.80
2018-09-14T06:04:33.341Z,26.63
2018-09-14T06:07:13.945Z,24.33
2018-09-14T06:09:54.632Z,17.50
2018-09-14T06:12:35.977Z,41.50
2018-09-14T06:15:16.778Z,31.37
2018-09-14T06:17:57.365Z,25.37
2018-09-14T06:20:38.054Z,31.53
2018-09-14T06:23:19.217Z,23.17
2018-09-14T06:26:00.418Z,20.17
2018-09-14T06:28:41.332Z,14.90
2018-09-14T06:31:22.213Z,42.97
2018-09-14T06:34:03.133Z,21.83
2018-09-14T06:36:43.617Z,21.33
2018-09-14T06:39:25.540Z,12.83
2018-09-14T06:42:06.258Z,15.17
2018-09-14T06:44:47.189Z,13.07
2018-09-14T06:47:27.970Z,11.60
2018-09-14T06:50:08.689Z,11.80
2018-09-14T06:52:49.359Z,14.23
2018-09-14T06:55:29.901Z,12.90
2018-09-14T06:58:10.673Z,13.43
2018-09-14T07:00:51.546Z,12.53
2018-09-14T07:03:32.909Z,21.67
2018-09-14T07:06:13.607Z,26.93
2018-09-14T07:08:54.453Z,17.83
2018-09-14T07:11:35.389Z,18.40
2018-09-14T07:14:17.024Z,18.83
2018-09-14T07:16:58.477Z,23.60
2018-09-14T07:19:39.012Z,20.97
2018-09-14T07:22:19.648Z,18.33
2018-09-14T07:25:00.327Z,14.40
2018-09-14T07:27:41.344Z,20.27
2018-09-14T07:30:21.869Z,11.90
2018-09-14T07:33:02.993Z,9.87
2018-09-14T07:35:44.099Z,13.70
2018-09-14T07:38:24.667Z,12.60
2018-09-14T07:41:05.631Z,11.10
2018-09-14T07:43:46.310Z,24.87
2018-09-14T07:46:26.907Z,12.57
2018-09-14T07:49:07.485Z,10.33
2018-09-14T07:51:48.246Z,23.37
2018-09-14T07:54:28.774Z,13.23
2018-09-14T07:57:09.398Z,11.50
2018-09-14T07:59:50.453Z,14.97
2018-09-14T08:02:31.665Z,13.97
2018-09-14T08:05:12.329Z,10.90
2018-09-14T08:07:52.944Z,10.97
2018-09-14T08:10:33.606Z,11.03
2018-09-14T08:13:14.418Z,8.67
2018-09-14T08:15:55.093Z,11.90
2018-09-14T08:18:35.807Z,14.60
2018-09-14T08:21:16.789Z,13.30
2018-09-14T08:23:57.405Z,11.10
2018-09-14T08:26:38.101Z,7.37
2018-09-14T08:29:18.637Z,11.67
2018-09-14T08:31:59.314Z,12.83
2018-09-14T08:34:40.397Z,8.33
2018-09-14T08:37:21.522Z,11.97
2018-09-14T08:40:02.183Z,11.53
2018-09-14T08:42:42.963Z,15.30
2018-09-14T08:45:24.373Z,17.60
2018-09-14T08:48:05.160Z,12.27
2018-09-14T08:50:45.534Z,24.33
2018-09-14T08:53:26.261Z,14.93
2018-09-14T08:56:06.695Z,17.43
2018-09-14T08:58:47.610Z,36.30
2018-09-14T09:01:28.177Z,16.83
2018-09-14T09:04:09.025Z,24.83
2018-09-14T09:06:50.430Z,22.53
2018-09-14T09:09:31.010Z,25.50
2018-09-14T09:12:11.614Z,31.10
2018-09-14T09:14:52.408Z,30.93
2018-09-14T09:17:33.300Z,27.37
2018-09-14T09:20:13.889Z,48.73
2018-09-14T09:22:54.725Z,36.77
2018-09-14T09:25:35.309Z,28.13
2018-09-14T09:28:15.826Z,22.17
2018-09-14T09:30:56.807Z,36.13
2018-09-14T09:33:37.752Z,42.00
2018-09-14T09:36:18.614Z,43.53
2018-09-14T09:38:59.426Z,30.40
2018-09-14T09:41:40.971Z,28.13
2018-09-14T09:44:21.949Z,39.00
2018-09-14T09:47:02.832Z,24.80
2018-09-14T09:49:43.663Z,23.80
2018-09-14T09:52:24.309Z,18.10
2018-09-14T09:55:05.082Z,37.33
2018-09-14T09:57:45.683Z,24.77
2018-09-14T10:00:31.523Z,24.77
2018-09-14T10:03:18.063Z,28.20
2018-09-14T10:06:04.840Z,23.27
2018-09-14T10:08:46.104Z,21.63
2018-09-14T10:11:27.441Z,24.40
2018-09-14T10:14:08.439Z,21.93
2018-09-14T10:16:49.089Z,14.50
2018-09-14T10:19:29.847Z,15.00
2018-09-14T10:22:10.625Z,20.03
2018-09-14T10:24:51.258Z,17.23
2018-09-14T10:27:32.069Z,16.40
2018-09-14T10:30:12.789Z,20.37
2018-09-14T10:32:53.481Z,14.27
2018-09-14T10:35:34.113Z,15.63
2018-09-14T10:38:14.968Z,11.90
2018-09-14T10:40:55.691Z,15.33
2018-09-14T10:43:36.542Z,15.03
2018-09-14T10:46:17.195Z,11.43
2018-09-14T10:48:57.872Z,14.90
2018-09-14T10:51:38.376Z,14.80
2018-09-14T10:54:19.787Z,8.83
2018-09-14T10:57:00.717Z,29.80
2018-09-14T10:59:41.246Z,11.30
2018-09-14T11:02:21.969Z,16.43
2018-09-14T11:05:02.717Z,8.93
2018-09-14T11:07:43.448Z,8.57
2018-09-14T11:10:24.128Z,9.73
2018-09-14T11:13:04.749Z,12.47
2018-09-14T11:15:45.620Z,17.30
2018-09-14T11:18:26.335Z,18.70
2018-09-14T11:21:06.869Z,12.80
2018-09-14T11:23:48.128Z,11.43
2018-09-14T11:26:29.090Z,11.70
2018-09-14T11:29:09.666Z,15.93
2018-09-14T11:31:50.249Z,10.70
2018-09-14T11:34:30.791Z,14.70
2018-09-14T11:37:11.475Z,11.07
2018-09-14T11:39:52.493Z,13.10
2018-09-14T11:42:33.019Z,16.43
2018-09-14T11:45:13.615Z,11.13
2018-09-14T11:47:54.430Z,19.30
2018-09-14T11:50:35.159Z,13.47
2018-09-14T11:53:15.856Z,10.53
2018-09-14T11:55:56.429Z,16.73
2018-09-14T11:58:37.318Z,17.97
2018-09-14T12:01:18.912Z,14.37
2018-09-14T12:04:00.746Z,20.90
2018-09-14T12:06:42.165Z,11.63
2018-09-14T12:09:22.784Z,13.57
2018-09-14T12:12:03.660Z,17.03
2018-09-14T12:14:44.257Z,11.03
2018-09-14T12:17:24.938Z,20.57
2018-09-14T12:20:05.517Z,15.80
2018-09-14T12:22:46.178Z,19.40
2018-09-14T12:25:27.197Z,13.17
2018-09-14T12:28:08.408Z,14.70
2018-09-14T12:30:49.455Z,18.50
2018-09-14T12:33:30.668Z,23.87
2018-09-14T12:36:11.768Z,13.03
2018-09-14T12:38:52.358Z,11.93
2018-09-14T12:41:33.033Z,15.50
2018-09-14T12:44:13.800Z,20.00
2018-09-14T12:46:54.358Z,10.93
2018-09-14T12:49:35.418Z,11.90
2018-09-14T12:52:16.685Z,10.40
2018-09-14T12:54:57.416Z,14.30
2018-09-14T12:57:39.225Z,17.90
2018-09-14T13:00:19.754Z,16.37
2018-09-14T13:03:00.505Z,14.47
2018-09-14T13:05:41.113Z,20.70
2018-09-14T13:08:21.823Z,14.23
2018-09-14T13:11:02.435Z,9.93
2018-09-14T13:13:42.938Z,12.60
2018-09-14T13:16:23.622Z,12.00
2018-09-14T13:19:04.398Z,13.50
2018-09-14T13:21:45.477Z,12.70
2018-09-14T13:24:27.246Z,16.03
2018-09-14T13:27:08.487Z,13.50
2018-09-14T13:29:49.258Z,16.40
2018-09-14T13:32:29.710Z,13.83
2018-09-14T13:35:10.427Z,21.03
2018-09-14T13:37:51.464Z,24.67
2018-09-14T13:40:32.706Z,16.60
2018-09-14T13:43:13.443Z,12.97
2018-09-14T13:45:54.241Z,8.10
2018-09-14T13:48:34.955Z,8.83
2018-09-14T13:51:16.613Z,5.80
2018-09-14T13:53:57.562Z,7.00
2018-09-14T13:56:38.950Z,5.80
2018-09-14T13:59:19.674Z,5.47
2018-09-14T14:02:00.704Z,4.80
2018-09-14T14:04:41.816Z,5.53
2018-09-14T14:07:22.441Z,5.00
2018-09-14T14:10:03.321Z,5.07
2018-09-14T14:12:43.826Z,4.90
2018-09-14T14:15:24.363Z,5.40
2018-09-14T14:18:05.273Z,5.67
2018-09-14T14:20:45.856Z,5.50
2018-09-14T14:23:26.585Z,7.77
2018-09-14T14:26:07.292Z,8.40
2018-09-14T14:28:48.174Z,8.23
2018-09-14T14:31:28.713Z,6.47
2018-09-14T14:34:09.388Z,10.83
2018-09-14T14:36:50.049Z,6.70
2018-09-14T14:39:30.836Z,7.63
2018-09-14T14:42:11.353Z,14.50
2018-09-14T14:44:52.013Z,8.10
2018-09-14T14:47:32.545Z,8.80
2018-09-14T14:50:13.236Z,15.00
2018-09-14T14:52:54.308Z,10.67
2018-09-14T14:55:35.800Z,10.93
2018-09-14T14:58:16.464Z,9.47
2018-09-14T15:00:57.106Z,9.73
2018-09-14T15:03:37.809Z,10.83
2018-09-14T15:06:18.508Z,9.90
2018-09-14T15:08:59.249Z,10.57
2018-09-14T15:11:40.226Z,7.93
2018-09-14T15:14:20.886Z,8.30
2018-09-14T15:17:01.566Z,11.13
2018-09-14T15:19:42.226Z,9.43
2018-09-14T15:22:22.953Z,7.87
2018-09-14T15:25:03.630Z,7.90
2018-09-14T15:27:44.242Z,7.67
2018-09-14T15:30:24.861Z,7.50
2018-09-14T15:33:05.457Z,8.53
2018-09-14T15:35:46.162Z,7.33
2018-09-14T15:38:26.752Z,6.80
2018-09-14T15:41:07.170Z,7.17
2018-09-14T15:43:48.080Z,7.27
2018-09-14T15:46:28.750Z,5.97
2018-09-14T15:49:09.400Z,7.37
2018-09-14T15:51:50.121Z,7.67
2018-09-14T15:54:30.654Z,8.93
2018-09-14T15:57:11.333Z,18.40
2018-09-14T15:59:51.929Z,8.30
2018-09-14T16:02:32.600Z,6.53
2018-09-14T16:05:13.196Z,6.83
2018-09-14T16:07:54.009Z,9.03
2018-09-14T16:10:34.640Z,8.30
2018-09-14T16:13:15.214Z,7.30
2018-09-14T16:15:55.801Z,9.97
2018-09-14T16:18:36.301Z,9.00
2018-09-14T16:21:16.918Z,7.50
2018-09-14T16:23:57.658Z,7.87
2018-09-14T16:26:39.153Z,6.83
2018-09-14T16:29:19.767Z,13.30
2018-09-14T16:32:00.446Z,13.77
2018-09-14T16:34:41.087Z,11.93
2018-09-14T16:37:21.812Z,10.13
2018-09-14T16:40:02.386Z,8.60
2018-09-14T16:42:43.144Z,7.27
2018-09-14T16:45:23.849Z,12.43
2018-09-14T16:48:04.402Z,7.60
2018-09-14T16:50:44.934Z,9.07
2018-09-14T16:53:25.557Z,14.07
2018-09-14T16:56:06.252Z,8.13
2018-09-14T16:58:47.396Z,13.90
2018-09-14T17:01:28.360Z,11.50
2018-09-14T17:04:08.849Z,8.20
2018-09-14T17:06:49.621Z,11.70
2018-09-14T17:09:31.062Z,7.37
2018-09-14T17:12:11.787Z,11.83
2018-09-14T17:14:52.442Z,11.57
2018-09-14T17:17:33.030Z,11.47
2018-09-14T17:20:14.342Z,16.43
2018-09-14T17:22:55.140Z,17.70
2018-09-14T17:25:35.534Z,11.30
2018-09-14T17:28:16.278Z,9.30
2018-09-14T17:30:56.941Z,7.77
2018-09-14T17:33:37.457Z,14.70
2018-09-14T17:36:18.100Z,9.53
2018-09-14T17:38:59.465Z,16.40
2018-09-14T17:41:40.285Z,9.57
2018-09-14T17:44:21.811Z,7.90
2018-09-14T17:47:02.392Z,29.77
2018-09-14T17:49:42.946Z,10.97
2018-09-14T17:52:23.688Z,9.97
2018-09-14T17:55:04.397Z,17.60
2018-09-14T17:57:45.089Z,10.43
2018-09-14T18:00:25.681Z,15.60
2018-09-14T18:03:07.151Z,14.43
2018-09-14T18:05:47.742Z,12.90
2018-09-14T18:08:28.374Z,26.13
2018-09-14T18:11:09.095Z,21.33
2018-09-14T18:13:49.619Z,10.70
2018-09-14T18:16:30.324Z,10.60
2018-09-14T18:19:11.037Z,12.50
2018-09-14T18:21:52.208Z,17.40
2018-09-14T18:24:33.249Z,14.83
2018-09-14T18:27:14.235Z,19.73
2018-09-14T18:29:55.381Z,16.13
2018-09-14T18:32:35.958Z,9.80
2018-09-14T18:35:17.385Z,14.27
2018-09-14T18:37:58.090Z,14.40
2018-09-14T18:40:38.705Z,9.40
2018-09-14T18:43:19.313Z,12.27
2018-09-14T18:46:00.058Z,10.40
2018-09-14T18:48:40.887Z,22.60
2018-09-14T18:51:21.456Z,14.00
2018-09-14T18:54:02.354Z,18.50
2018-09-14T18:56:43.005Z,14.70
2018-09-14T18:59:23.712Z,13.40
2018-09-14T19:02:04.354Z,23.63
2018-09-14T19:04:44.934Z,16.10
2018-09-14T19:07:26.274Z,23.37
2018-09-14T19:10:07.835Z,9.67
2018-09-14T19:12:48.442Z,15.20
2018-09-14T19:15:29.818Z,11.27
2018-09-14T19:18:10.761Z,12.67
2018-09-14T19:20:51.274Z,14.30
2018-09-14T19:23:32.320Z,20.43
2018-09-14T19:26:13.068Z,11.60
2018-09-14T19:28:53.685Z,19.00
2018-09-14T19:31:34.642Z,26.87
2018-09-14T19:34:15.342Z,19.70
2018-09-14T19:36:56.137Z,20.97
2018-09-14T19:39:37.073Z,14.40
2018-09-14T19:42:17.773Z,24.63
2018-09-14T19:44:59.219Z,15.53
2018-09-14T19:47:40.029Z,16.03
2018-09-14T19:50:20.917Z,17.00
2018-09-14T19:53:01.584Z,14.20
2018-09-14T19:55:42.089Z,11.27
2018-09-14T19:58:22.894Z,13.83
2018-09-14T20:01:03.614Z,15.83
2018-09-14T20:03:44.566Z,16.30
2018-09-14T20:06:25.280Z,27.33
2018-09-14T20:09:06.189Z,18.10
2018-09-14T20:11:46.785Z,17.80
2018-09-14T20:14:27.533Z,15.27
2018-09-14T20:17:09.013Z,21.80
2018-09-14T20:19:50.442Z,10.40
2018-09-14T20:22:31.097Z,23.60
2018-09-14T20:25:11.825Z,14.80
2018-09-14T20:27:52.673Z,14.23
2018-09-14T20:30:33.852Z,10.23
2018-09-14T20:33:14.659Z,10.40
2018-09-14T20:35:55.128Z,12.23
2018-09-14T20:38:35.919Z,11.70
2018-09-14T20:41:16.509Z,11.57
2018-09-14T20:43:57.246Z,14.10
2018-09-14T20:46:38.270Z,13.83
2018-09-14T20:49:19.161Z,15.43
2018-09-14T20:51:59.825Z,14.13
2018-09-14T20:54:40.382Z,12.20
2018-09-14T20:57:21.175Z,14.57
2018-09-14T21:00:01.917Z,10.80
2018-09-14T21:02:42.768Z,14.73
2018-09-14T21:05:23.963Z,14.03
2018-09-14T21:08:05.454Z,10.20
2018-09-14T21:10:46.705Z,16.53
2018-09-14T21:13:28.366Z,11.07
2018-09-14T21:16:09.043Z,12.00
2018-09-14T21:18:50.061Z,13.57
2018-09-14T21:21:30.824Z,16.40
2018-09-14T21:24:11.370Z,23.43
2018-09-14T21:26:53.208Z,20.57
2018-09-14T21:29:34.037Z,16.33
2018-09-14T21:32:14.964Z,20.10
2018-09-14T21:34:55.481Z,14.27
2018-09-14T21:37:36.681Z,21.50
2018-09-14T21:40:17.474Z,19.23
2018-09-14T21:42:58.009Z,14.93
2018-09-14T21:45:38.539Z,24.53
2018-09-14T21:48:19.366Z,20.30
2018-09-14T21:50:59.861Z,13.40
2018-09-14T21:53:40.542Z,13.20
2018-09-14T21:56:21.105Z,13.93
2018-09-14T21:59:01.871Z,14.17
2018-09-14T22:01:42.612Z,20.90
2018-09-14T22:04:23.264Z,14.30
2018-09-14T22:07:03.889Z,13.80
2018-09-14T22:09:44.570Z,18.43
2018-09-14T22:12:25.260Z,11.70
2018-09-14T22:15:05.758Z,16.87
2018-09-14T22:17:46.446Z,20.87
2018-09-14T22:20:27.117Z,14.37
2018-09-14T22:23:07.872Z,15.50
2018-09-14T22:25:48.774Z,13.73
2018-09-14T22:28:29.462Z,12.43
2018-09-14T22:31:10.229Z,12.47
2018-09-14T22:33:50.853Z,17.40
2018-09-14T22:36:31.427Z,11.03
2018-09-14T22:39:13.520Z,11.73
2018-09-14T22:41:54.076Z,10.27
2018-09-14T22:44:34.721Z,13.60
2018-09-14T22:47:15.406Z,20.87
2018-09-14T22:49:55.900Z,11.70
2018-09-14T22:52:36.606Z,11.23
2018-09-14T22:55:17.222Z,15.80
2018-09-14T22:57:57.977Z,12.00
2018-09-14T23:00:44.032Z,10.60
2018-09-14T23:03:25.451Z,14.00
2018-09-14T23:06:05.998Z,15.17
2018-09-14T23:08:46.833Z,11.47
2018-09-14T23:11:27.506Z,15.37
2018-09-14T23:14:08.026Z,21.63
2018-09-14T23:16:48.776Z,14.80
2018-09-14T23:19:29.685Z,16.00
2018-09-14T23:22:10.447Z,11.20
2018-09-14T23:24:51.275Z,14.37
2018-09-14T23:27:31.813Z,11.03
2018-09-14T23:30:13.167Z,13.63
2018-09-14T23:32:54.050Z,13.43
2018-09-14T23:35:34.614Z,20.13
2018-09-14T23:38:15.174Z,9.93
2018-09-14T23:40:55.848Z,11.60
2018-09-14T23:43:36.505Z,14.47
2018-09-14T23:46:17.127Z,10.30
2018-09-14T23:48:58.008Z,18.30
2018-09-14T23:51:38.818Z,12.77
2018-09-14T23:54:19.604Z,15.70
2018-09-14T23:57:00.290Z,13.07
2018-09-14T23:59:41.017Z,11.27
